Time;durP1;ratioP1;P1;durP2;ratioP2;P2;SDS_P1;SDS_P2;PMS_P1;PMS_P2;Temp;Humidity;BMP_temperature;BMP_pressure;BME280_temperature;BME280_humidity;BME280_pressure;Samples;Min_cycle;Max_cycle;Signal;HPM_P1;HPM_P2
2024/01/14 00:01:25;;;;;;;0.30;0.30;;;;;;;;;;5054553;28;20285;-79
2024/01/14 00:03:52;;;;;;;0.30;0.30;;;;;;;;;;5065041;28;20218;-80
2024/01/14 00:06:19;;;;;;;0.20;0.20;;;;;;;;;;5054423;28;20263;-80
2024/01/14 00:08:47;;;;;;;0.30;0.30;;;;;;;;;;5065257;28;20249;-81
2024/01/14 00:11:14;;;;;;;0.30;0.30;;;;;;;;;;5054832;28;20276;-69
2024/01/14 00:13:40;;;;;;;0.23;0.23;;;;;;;;;;5064903;28;20277;-72
2024/01/14 00:16:06;;;;;;;0.30;0.30;;;;;;;;;;5054419;28;20263;-73
2024/01/14 00:18:33;;;;;;;0.20;0.20;;;;;;;;;;5064661;28;20213;-70
2024/01/14 00:20:59;;;;;;;0.30;0.30;;;;;;;;;;5054623;28;20254;-81
2024/01/14 00:23:27;;;;;;;0.23;0.23;;;;;;;;;;5064555;28;20207;-76
2024/01/14 00:25:53;;;;;;;0.20;0.20;;;;;;;;;;5055066;28;20250;-76
2024/01/14 00:28:20;;;;;;;0.30;0.30;;;;;;;;;;5063705;28;20379;-79
2024/01/14 00:30:47;;;;;;;0.23;0.23;;;;;;;;;;5054319;28;20245;-79
2024/01/14 00:33:13;;;;;;;0.30;0.30;;;;;;;;;;5064578;28;20210;-79
2024/01/14 00:35:39;;;;;;;0.27;0.27;;;;;;;;;;5054763;28;20259;-79
2024/01/14 00:38:06;;;;;;;0.30;0.30;;;;;;;;;;5064177;28;20202;-79
2024/01/14 00:40:34;;;;;;;0.20;0.20;;;;;;;;;;5054484;28;20254;-78
2024/01/14 00:43:01;;;;;;;0.20;0.20;;;;;;;;;;5064718;28;20277;-81
2024/01/14 00:45:27;;;;;;;1.23;1.23;;;;;;;;;;5055761;28;20200;-82
2024/01/14 00:47:54;;;;;;;0.30;0.30;;;;;;;;;;5065299;28;20194;-82
2024/01/14 00:50:23;;;;;;;0.30;0.30;;;;;;;;;;5055923;28;20278;-83
2024/01/14 00:52:49;;;;;;;0.20;0.20;;;;;;;;;;5063819;28;20242;-83
2024/01/14 00:55:15;;;;;;;0.30;0.30;;;;;;;;;;5054675;28;20280;-83
2024/01/14 00:57:43;;;;;;;0.30;0.30;;;;;;;;;;5063825;28;20194;-82
2024/01/14 01:00:10;;;;;;;0.30;0.30;;;;;;;;;;5058967;28;20235;-80
2024/01/14 01:02:37;;;;;;;0.30;0.30;;;;;;;;;;5063306;28;20447;-81
2024/01/14 01:05:03;;;;;;;0.30;0.30;;;;;;;;;;5064614;28;20252;-83
2024/01/14 01:07:30;;;;;;;1.60;1.60;;;;;;;;;;5053747;28;20245;-84
2024/01/14 01:09:56;;;;;;;0.30;0.30;;;;;;;;;;5065234;28;20241;-82
2024/01/14 01:12:23;;;;;;;0.30;0.30;;;;;;;;;;5053323;28;20248;-81
2024/01/14 01:14:51;;;;;;;0.30;0.30;;;;;;;;;;5064828;28;20255;-83
2024/01/14 01:17:19;;;;;;;0.20;0.20;;;;;;;;;;5053120;28;20246;-79
2024/01/14 01:19:49;;;;;;;0.30;0.30;;;;;;;;;;5064805;28;20214;-82
2024/01/14 01:22:15;;;;;;;0.40;0.40;;;;;;;;;;5053479;28;20240;-84
2024/01/14 01:24:41;;;;;;;0.30;0.30;;;;;;;;;;5064851;28;20390;-77
2024/01/14 01:27:09;;;;;;;0.30;0.30;;;;;;;;;;5052796;28;20242;-80
2024/01/14 01:29:36;;;;;;;0.30;0.30;;;;;;;;;;5064195;28;20209;-80
2024/01/14 01:32:04;;;;;;;0.30;0.30;;;;;;;;;;5053109;28;20309;-80
2024/01/14 01:34:30;;;;;;;0.30;0.30;;;;;;;;;;5063574;28;20209;-80
2024/01/14 01:36:57;;;;;;;0.20;0.20;;;;;;;;;;5052593;28;20305;-81
2024/01/14 01:39:24;;;;;;;0.30;0.30;;;;;;;;;;5063677;28;20231;-80
2024/01/14 01:41:52;;;;;;;0.80;0.80;;;;;;;;;;5052606;28;20584;-82
2024/01/14 01:44:18;;;;;;;0.30;0.30;;;;;;;;;;5064520;28;20226;-84
2024/01/14 01:46:44;;;;;;;0.30;0.30;;;;;;;;;;5053117;28;20331;-84
2024/01/14 01:49:12;;;;;;;0.30;0.30;;;;;;;;;;5064103;28;20274;-84
2024/01/14 01:51:40;;;;;;;0.30;0.30;;;;;;;;;;5053102;28;20242;-84
2024/01/14 01:54:08;;;;;;;0.20;0.20;;;;;;;;;;5064104;28;20210;-84
2024/01/14 01:56:35;;;;;;;0.20;0.20;;;;;;;;;;5052692;28;20559;-83
2024/01/14 01:59:01;;;;;;;0.30;0.30;;;;;;;;;;5064079;28;20206;-84
2024/01/14 02:01:28;;;;;;;0.30;0.30;;;;;;;;;;5052956;28;20254;-83
2024/01/14 02:03:55;;;;;;;0.30;0.30;;;;;;;;;;5063680;28;20219;-84
2024/01/14 02:06:23;;;;;;;0.20;0.20;;;;;;;;;;5053063;28;20246;-84
2024/01/14 02:08:50;;;;;;;0.20;0.20;;;;;;;;;;5063593;28;20271;-84
2024/01/14 02:11:19;;;;;;;0.27;0.27;;;;;;;;;;5053061;28;20249;-82
2024/01/14 02:13:46;;;;;;;0.27;0.27;;;;;;;;;;5063365;28;20208;-83
2024/01/14 02:16:13;;;;;;;0.20;0.20;;;;;;;;;;5052924;28;20468;-83
2024/01/14 02:18:42;;;;;;;0.30;0.30;;;;;;;;;;5063204;28;20206;-83
2024/01/14 02:21:09;;;;;;;0.20;0.20;;;;;;;;;;5052985;28;20262;-83
2024/01/14 02:23:40;;;;;;;0.20;0.20;;;;;;;;;;5062871;28;20252;-81
2024/01/14 02:26:08;;;;;;;0.30;0.30;;;;;;;;;;5052077;28;20242;-63
2024/01/14 02:28:34;;;;;;;0.20;0.20;;;;;;;;;;5062601;28;20234;-73
2024/01/14 02:31:01;;;;;;;0.37;0.37;;;;;;;;;;5052527;28;20249;-78
2024/01/14 02:33:27;;;;;;;0.27;0.27;;;;;;;;;;5062325;28;20271;-79
2024/01/14 02:35:54;;;;;;;0.20;0.20;;;;;;;;;;5052510;28;20243;-79
2024/01/14 02:38:20;;;;;;;0.30;0.30;;;;;;;;;;5062492;28;20209;-80
2024/01/14 02:40:47;;;;;;;0.30;0.30;;;;;;;;;;5052463;28;20464;-80
2024/01/14 02:43:14;;;;;;;0.20;0.20;;;;;;;;;;5062296;28;20207;-79
2024/01/14 02:45:40;;;;;;;0.30;0.30;;;;;;;;;;5053001;28;20624;-80
2024/01/14 02:48:06;;;;;;;0.23;0.23;;;;;;;;;;5062148;28;20206;-79
2024/01/14 02:50:33;;;;;;;0.30;0.30;;;;;;;;;;5053419;28;20240;-79
2024/01/14 02:52:59;;;;;;;0.23;0.23;;;;;;;;;;5066290;28;20227;-78
2024/01/14 02:55:25;;;;;;;0.30;0.30;;;;;;;;;;5056722;28;20506;-78
2024/01/14 02:57:52;;;;;;;0.30;0.30;;;;;;;;;;5065957;28;20203;-81
2024/01/14 03:00:20;;;;;;;0.30;0.30;;;;;;;;;;5056430;28;20204;-80
2024/01/14 03:02:46;;;;;;;0.30;0.30;;;;;;;;;;5066146;28;20266;-81
2024/01/14 03:05:13;;;;;;;0.30;0.30;;;;;;;;;;5056286;28;20239;-79
2024/01/14 03:07:39;;;;;;;0.30;0.30;;;;;;;;;;5065422;28;20286;-80
2024/01/14 03:10:06;;;;;;;0.30;0.30;;;;;;;;;;5067077;28;20205;-82
2024/01/14 03:12:32;;;;;;;0.30;0.30;;;;;;;;;;5055424;28;20255;-81
2024/01/14 03:14:59;;;;;;;0.30;0.30;;;;;;;;;;5067301;28;20239;-82
2024/01/14 03:17:26;;;;;;;0.30;0.30;;;;;;;;;;5055376;28;20302;-82
2024/01/14 03:19:53;;;;;;;0.30;0.30;;;;;;;;;;5066734;28;20253;-81
2024/01/14 03:22:19;;;;;;;0.30;0.30;;;;;;;;;;5054847;28;20253;-79
2024/01/14 03:24:46;;;;;;;0.30;0.30;;;;;;;;;;5066302;28;20246;-81
2024/01/14 03:27:12;;;;;;;0.30;0.30;;;;;;;;;;5055124;28;20302;-80
2024/01/14 03:29:38;;;;;;;0.30;0.30;;;;;;;;;;5066380;28;20269;-80
2024/01/14 03:32:05;;;;;;;0.30;0.30;;;;;;;;;;5054837;28;20270;-81
2024/01/14 03:34:33;;;;;;;0.30;0.30;;;;;;;;;;5066502;28;20263;-81
2024/01/14 03:36:59;;;;;;;0.30;0.30;;;;;;;;;;5054841;28;20243;-79
2024/01/14 03:39:25;;;;;;;0.20;0.20;;;;;;;;;;5066316;28;20234;-81
2024/01/14 03:41:52;;;;;;;0.23;0.23;;;;;;;;;;5054746;28;20249;-80
2024/01/14 03:44:19;;;;;;;0.30;0.30;;;;;;;;;;5065813;28;20206;-80
2024/01/14 03:46:45;;;;;;;0.30;0.30;;;;;;;;;;5054836;28;20243;-80
2024/01/14 03:49:12;;;;;;;0.20;0.20;;;;;;;;;;5065324;28;20529;-80
2024/01/14 03:51:40;;;;;;;0.23;0.23;;;;;;;;;;5054666;28;20255;-80
2024/01/14 03:54:06;;;;;;;0.30;0.30;;;;;;;;;;5065598;28;20214;-81
2024/01/14 03:56:33;;;;;;;0.30;0.30;;;;;;;;;;5054485;28;20302;-80
2024/01/14 03:58:59;;;;;;;1.27;1.27;;;;;;;;;;5065350;28;20210;-82
2024/01/14 04:01:26;;;;;;;0.23;0.23;;;;;;;;;;5054558;28;20249;-81
2024/01/14 04:03:52;;;;;;;0.30;0.30;;;;;;;;;;5065110;28;20530;-81
2024/01/14 04:06:19;;;;;;;0.30;0.30;;;;;;;;;;5054606;28;20303;-81
2024/01/14 04:08:47;;;;;;;0.20;0.20;;;;;;;;;;5065359;28;20204;-81
2024/01/14 04:11:14;;;;;;;0.20;0.20;;;;;;;;;;5054727;28;20458;-80
2024/01/14 04:13:40;;;;;;;0.20;0.20;;;;;;;;;;5064802;28;20207;-81
2024/01/14 04:16:07;;;;;;;0.30;0.30;;;;;;;;;;5054547;28;20238;-80
2024/01/14 04:18:34;;;;;;;0.30;0.30;;;;;;;;;;5064845;28;20207;-79
2024/01/14 04:21:00;;;;;;;0.20;0.20;;;;;;;;;;5054555;28;20448;-81
2024/01/14 04:23:26;;;;;;;0.30;0.30;;;;;;;;;;5064848;28;20239;-79
2024/01/14 04:25:54;;;;;;;0.30;0.30;;;;;;;;;;5054660;28;20242;-80
2024/01/14 04:28:20;;;;;;;0.20;0.20;;;;;;;;;;5064720;28;20538;-79
2024/01/14 04:30:47;;;;;;;0.40;0.40;;;;;;;;;;5054695;28;20473;-80
2024/01/14 04:33:13;;;;;;;0.40;0.40;;;;;;;;;;5064319;28;20517;-80
2024/01/14 04:35:40;;;;;;;0.30;0.30;;;;;;;;;;5054911;28;20242;-80
2024/01/14 04:38:06;;;;;;;0.30;0.30;;;;;;;;;;5064711;28;20458;-81
2024/01/14 04:40:32;;;;;;;0.30;0.30;;;;;;;;;;5054880;28;20317;-81
2024/01/14 04:43:00;;;;;;;0.30;0.30;;;;;;;;;;5064000;28;20442;-81
2024/01/14 04:45:27;;;;;;;0.30;0.30;;;;;;;;;;5054757;28;20395;-81
2024/01/14 04:47:53;;;;;;;0.30;0.30;;;;;;;;;;5063970;28;20199;-80
2024/01/14 04:50:19;;;;;;;0.30;0.30;;;;;;;;;;5054678;28;20211;-81
2024/01/14 04:52:46;;;;;;;0.30;0.30;;;;;;;;;;5063903;28;20200;-81
2024/01/14 04:55:13;;;;;;;0.20;0.20;;;;;;;;;;5054558;28;20499;-80
2024/01/14 04:57:40;;;;;;;0.30;0.30;;;;;;;;;;5063538;28;20438;-81
2024/01/14 05:00:08;;;;;;;0.20;0.20;;;;;;;;;;5064970;28;20204;-80
2024/01/14 05:02:35;;;;;;;0.23;0.23;;;;;;;;;;5053043;28;20214;-80
2024/01/14 05:05:02;;;;;;;0.20;0.20;;;;;;;;;;5064150;28;20253;-81
2024/01/14 05:07:29;;;;;;;0.30;0.30;;;;;;;;;;5052819;28;20242;-80
2024/01/14 05:09:55;;;;;;;0.30;0.30;;;;;;;;;;5064496;28;20208;-79
2024/01/14 05:12:22;;;;;;;0.20;0.20;;;;;;;;;;5052935;28;20357;-81
2024/01/14 05:14:48;;;;;;;0.30;0.30;;;;;;;;;;5064012;28;20386;-80
2024/01/14 05:17:16;;;;;;;0.20;0.20;;;;;;;;;;5052806;28;20245;-80
2024/01/14 05:19:42;;;;;;;0.30;0.30;;;;;;;;;;5064435;28;20203;-80
2024/01/14 05:22:09;;;;;;;0.20;0.20;;;;;;;;;;5052934;28;20243;-80
2024/01/14 05:24:35;;;;;;;0.30;0.30;;;;;;;;;;5064264;28;20198;-80
2024/01/14 05:27:02;;;;;;;0.20;0.20;;;;;;;;;;5052898;28;20242;-80
2024/01/14 05:29:28;;;;;;;0.30;0.30;;;;;;;;;;5064168;28;20203;-79
2024/01/14 05:31:55;;;;;;;0.20;0.20;;;;;;;;;;5052849;28;20242;-80
2024/01/14 05:34:25;;;;;;;0.30;0.30;;;;;;;;;;5064130;28;20328;-82
2024/01/14 05:36:52;;;;;;;0.30;0.30;;;;;;;;;;5052828;28;20493;-80
2024/01/14 05:39:18;;;;;;;0.23;0.23;;;;;;;;;;5063648;28;20206;-80
2024/01/14 05:41:45;;;;;;;0.20;0.20;;;;;;;;;;5052581;28;20251;-79
2024/01/14 05:44:11;;;;;;;0.23;0.23;;;;;;;;;;5063614;28;20278;-80
2024/01/14 05:46:37;;;;;;;0.20;0.20;;;;;;;;;;5052648;28;20322;-80
2024/01/14 05:49:04;;;;;;;0.20;0.20;;;;;;;;;;5063720;28;20239;-81
2024/01/14 05:51:31;;;;;;;0.20;0.20;;;;;;;;;;5052733;28;20282;-80
2024/01/14 05:53:58;;;;;;;0.97;0.97;;;;;;;;;;5063378;28;20215;-79
2024/01/14 05:56:25;;;;;;;0.30;0.30;;;;;;;;;;5052764;28;20239;-81
2024/01/14 05:58:52;;;;;;;0.20;0.20;;;;;;;;;;5063637;28;20206;-81
2024/01/14 06:01:18;;;;;;;0.20;0.20;;;;;;;;;;5053071;28;20243;-81
2024/01/14 06:03:45;;;;;;;0.20;0.20;;;;;;;;;;5062801;28;20207;-80
2024/01/14 06:06:12;;;;;;;0.30;0.30;;;;;;;;;;5052900;28;20288;-81
2024/01/14 06:08:41;;;;;;;1.30;1.30;;;;;;;;;;5063106;28;20233;-81
2024/01/14 06:11:07;;;;;;;0.30;0.30;;;;;;;;;;5052645;28;20242;-81
2024/01/14 06:13:34;;;;;;;0.23;0.23;;;;;;;;;;5062831;28;20203;-80
2024/01/14 06:16:00;;;;;;;0.20;0.20;;;;;;;;;;5052989;28;20422;-79
2024/01/14 06:18:28;;;;;;;0.20;0.20;;;;;;;;;;5062734;28;20207;-81
2024/01/14 06:20:55;;;;;;;2.30;2.20;;;;;;;;;;5052983;28;20630;-81
2024/01/14 06:23:22;;;;;;;0.20;0.20;;;;;;;;;;5062518;28;20213;-80
2024/01/14 06:25:50;;;;;;;0.20;0.20;;;;;;;;;;5053674;28;20269;-80
2024/01/14 06:28:16;;;;;;;0.30;0.30;;;;;;;;;;5066612;28;20206;-80
2024/01/14 06:30:43;;;;;;;0.20;0.20;;;;;;;;;;5057207;28;20306;-80
2024/01/14 06:33:10;;;;;;;0.30;0.30;;;;;;;;;;5066457;28;20334;-81
2024/01/14 06:35:36;;;;;;;0.20;0.20;;;;;;;;;;5057031;28;20241;-80
2024/01/14 06:38:06;;;;;;;0.20;0.20;;;;;;;;;;5066245;28;20229;-81
2024/01/14 06:40:32;;;;;;;0.20;0.20;;;;;;;;;;5057005;28;20248;-81
2024/01/14 06:43:00;;;;;;;0.20;0.20;;;;;;;;;;5066704;28;20639;-81
2024/01/14 06:45:26;;;;;;;0.30;0.30;;;;;;;;;;5056546;28;20211;-79
2024/01/14 06:47:53;;;;;;;0.20;0.20;;;;;;;;;;5066392;28;20223;-80
2024/01/14 06:50:19;;;;;;;0.20;0.20;;;;;;;;;;5056516;28;20403;-80
2024/01/14 06:52:45;;;;;;;0.27;0.27;;;;;;;;;;5065958;28;20217;-81
2024/01/14 06:55:12;;;;;;;0.20;0.20;;;;;;;;;;5056921;28;20227;-81
2024/01/14 06:57:39;;;;;;;0.20;0.20;;;;;;;;;;5066102;28;20224;-81
2024/01/14 07:00:09;;;;;;;0.20;0.20;;;;;;;;;;5067034;28;20207;-80
2024/01/14 07:02:35;;;;;;;0.30;0.30;;;;;;;;;;5055576;28;20282;-81
2024/01/14 07:05:02;;;;;;;0.43;0.43;;;;;;;;;;5066653;28;20285;-81
2024/01/14 07:07:29;;;;;;;0.30;0.30;;;;;;;;;;5055637;28;20302;-79
2024/01/14 07:09:56;;;;;;;0.20;0.20;;;;;;;;;;5066442;28;20269;-80
2024/01/14 07:12:22;;;;;;;0.30;0.30;;;;;;;;;;5055519;28;20246;-80
2024/01/14 07:14:49;;;;;;;0.30;0.30;;;;;;;;;;5066382;28;20199;-80
2024/01/14 07:17:16;;;;;;;0.20;0.20;;;;;;;;;;5055120;28;20234;-80
2024/01/14 07:19:43;;;;;;;0.30;0.30;;;;;;;;;;5066559;28;20396;-82
2024/01/14 07:22:09;;;;;;;0.20;0.20;;;;;;;;;;5055176;28;20258;-82
2024/01/14 07:24:36;;;;;;;0.20;0.20;;;;;;;;;;5066454;28;20226;-80
2024/01/14 07:27:03;;;;;;;0.23;0.23;;;;;;;;;;5055175;28;20262;-81
2024/01/14 07:29:29;;;;;;;0.20;0.20;;;;;;;;;;5066144;28;20391;-81
2024/01/14 07:31:56;;;;;;;0.30;0.30;;;;;;;;;;5054898;28;20250;-81
2024/01/14 07:34:23;;;;;;;0.20;0.20;;;;;;;;;;5065992;28;20266;-81
2024/01/14 07:36:50;;;;;;;0.20;0.20;;;;;;;;;;5054765;28;20306;-81
2024/01/14 07:39:17;;;;;;;0.20;0.20;;;;;;;;;;5065690;28;20269;-81
2024/01/14 07:41:43;;;;;;;0.20;0.20;;;;;;;;;;5054866;28;20324;-81
2024/01/14 07:44:09;;;;;;;0.20;0.20;;;;;;;;;;5065951;28;20460;-81
2024/01/14 07:46:36;;;;;;;0.30;0.30;;;;;;;;;;5054978;28;20246;-80
2024/01/14 07:49:02;;;;;;;0.30;0.30;;;;;;;;;;5065859;28;20452;-81
2024/01/14 07:51:30;;;;;;;0.23;0.23;;;;;;;;;;5054812;28;20252;-82
2024/01/14 07:53:56;;;;;;;0.20;0.20;;;;;;;;;;5065753;28;20215;-81
2024/01/14 07:56:23;;;;;;;0.30;0.30;;;;;;;;;;5055104;28;20265;-81
2024/01/14 07:58:49;;;;;;;0.30;0.30;;;;;;;;;;5065241;28;20245;-81
2024/01/14 08:01:17;;;;;;;0.30;0.30;;;;;;;;;;5054778;28;20243;-81
2024/01/14 08:03:43;;;;;;;0.20;0.20;;;;;;;;;;5065051;28;20207;-82
2024/01/14 08:06:10;;;;;;;0.20;0.20;;;;;;;;;;5054928;28;20247;-82
2024/01/14 08:08:38;;;;;;;0.20;0.20;;;;;;;;;;5065372;28;20240;-82
2024/01/14 08:11:04;;;;;;;0.20;0.20;;;;;;;;;;5054908;28;20305;-81
2024/01/14 08:13:31;;;;;;;0.30;0.30;;;;;;;;;;5064793;28;20226;-82
2024/01/14 08:15:57;;;;;;;0.20;0.20;;;;;;;;;;5054807;28;20242;-81
2024/01/14 08:18:23;;;;;;;0.30;0.30;;;;;;;;;;5064663;28;20407;-81
2024/01/14 08:20:51;;;;;;;0.20;0.20;;;;;;;;;;5054905;28;20242;-82
2024/01/14 08:23:17;;;;;;;0.67;0.67;;;;;;;;;;5065030;28;20195;-82
2024/01/14 08:25:45;;;;;;;0.20;0.20;;;;;;;;;;5054049;28;20239;-81
2024/01/14 08:28:12;;;;;;;0.20;0.20;;;;;;;;;;5064946;28;20211;-81
2024/01/14 08:30:38;;;;;;;0.20;0.20;;;;;;;;;;5054716;28;20254;-82
2024/01/14 08:33:05;;;;;;;0.20;0.20;;;;;;;;;;5064664;28;20416;-81
2024/01/14 08:35:31;;;;;;;0.20;0.20;;;;;;;;;;5054616;28;20314;-82
2024/01/14 08:37:57;;;;;;;0.20;0.20;;;;;;;;;;5064123;28;20226;-82
2024/01/14 08:40:24;;;;;;;0.20;0.20;;;;;;;;;;5054467;28;20207;-82
2024/01/14 08:42:52;;;;;;;0.20;0.20;;;;;;;;;;5064321;28;20227;-82
2024/01/14 08:45:18;;;;;;;0.20;0.20;;;;;;;;;;5054404;28;20203;-81
2024/01/14 08:47:45;;;;;;;0.30;0.30;;;;;;;;;;5063719;28;20461;-81
2024/01/14 08:50:11;;;;;;;0.20;0.20;;;;;;;;;;5053847;28;20206;-79
2024/01/14 08:52:38;;;;;;;0.20;0.20;;;;;;;;;;5063913;28;20217;-82
2024/01/14 08:55:05;;;;;;;0.20;0.20;;;;;;;;;;5065033;28;20377;-80
2024/01/14 08:57:31;;;;;;;0.20;0.20;;;;;;;;;;5053524;28;20240;-81
2024/01/14 08:59:59;;;;;;;0.27;0.27;;;;;;;;;;5064810;28;20211;-82
2024/01/14 09:02:26;;;;;;;0.20;0.20;;;;;;;;;;5053333;28;20258;-81
2024/01/14 09:04:52;;;;;;;0.20;0.20;;;;;;;;;;5064298;28;20212;-82
2024/01/14 09:07:19;;;;;;;0.20;0.20;;;;;;;;;;5053282;28;20239;-80
2024/01/14 09:09:45;;;;;;;0.27;0.27;;;;;;;;;;5064092;28;20224;-80
2024/01/14 09:12:11;;;;;;;0.20;0.20;;;;;;;;;;5053298;28;20526;-81
2024/01/14 09:14:38;;;;;;;0.20;0.20;;;;;;;;;;5064530;28;20246;-80
2024/01/14 09:17:06;;;;;;;0.20;0.20;;;;;;;;;;5053192;28;20254;-82
2024/01/14 09:19:32;;;;;;;0.20;0.20;;;;;;;;;;5064167;28;20302;-80
2024/01/14 09:21:58;;;;;;;0.20;0.20;;;;;;;;;;5053126;28;20539;-82
2024/01/14 09:24:25;;;;;;;0.30;0.30;;;;;;;;;;5063868;28;20208;-81
2024/01/14 09:26:52;;;;;;;0.20;0.20;;;;;;;;;;5053110;28;20259;-81
2024/01/14 09:29:18;;;;;;;0.20;0.20;;;;;;;;;;5063875;28;20274;-81
2024/01/14 09:31:44;;;;;;;0.30;0.30;;;;;;;;;;5053032;28;20258;-81
2024/01/14 09:34:12;;;;;;;0.20;0.20;;;;;;;;;;5063869;28;20203;-81
2024/01/14 09:36:41;;;;;;;0.20;0.20;;;;;;;;;;5052957;28;20255;-81
2024/01/14 09:39:10;;;;;;;0.20;0.20;;;;;;;;;;5063653;28;20231;-81
2024/01/14 09:41:40;;;;;;;0.20;0.20;;;;;;;;;;5052729;28;20250;-81
2024/01/14 09:44:09;;;;;;;0.20;0.20;;;;;;;;;;5063654;28;20249;-81
2024/01/14 09:46:36;;;;;;;0.20;0.20;;;;;;;;;;5052852;28;20310;-80
2024/01/14 09:49:03;;;;;;;0.20;0.20;;;;;;;;;;5063380;28;20201;-81
2024/01/14 09:51:35;;;;;;;0.20;0.20;;;;;;;;;;5052731;28;20277;-81
2024/01/14 09:54:01;;;;;;;0.20;0.20;;;;;;;;;;5063798;28;20434;-81
2024/01/14 09:56:32;;;;;;;0.20;0.20;;;;;;;;;;5052831;28;20473;-81
2024/01/14 09:59:00;;;;;;;0.20;0.20;;;;;;;;;;5063211;28;20224;-81
2024/01/14 10:01:31;;;;;;;0.20;0.20;;;;;;;;;;5052566;28;20242;-81
2024/01/14 10:03:58;;;;;;;0.20;0.20;;;;;;;;;;5063039;28;20215;-81
2024/01/14 10:06:25;;;;;;;0.20;0.20;;;;;;;;;;5052527;28;20245;-81
2024/01/14 10:08:52;;;;;;;0.20;0.20;;;;;;;;;;5063056;28;20201;-81
2024/01/14 10:11:19;;;;;;;0.20;0.20;;;;;;;;;;5052644;28;20251;-82
2024/01/14 10:13:46;;;;;;;0.20;0.20;;;;;;;;;;5063138;28;20226;-80
2024/01/14 10:16:12;;;;;;;0.20;0.20;;;;;;;;;;5052567;28;20243;-82
2024/01/14 10:18:41;;;;;;;0.20;0.20;;;;;;;;;;5063170;28;20291;-80
2024/01/14 10:21:07;;;;;;;0.20;0.20;;;;;;;;;;5053216;28;20244;-78
2024/01/14 10:23:34;;;;;;;0.20;0.20;;;;;;;;;;5063313;28;20227;-81
2024/01/14 10:26:02;;;;;;;9.03;8.30;;;;;;;;;;5053103;28;20250;-84
2024/01/14 10:28:31;;;;;;;0.20;0.20;;;;;;;;;;5064582;28;20199;-85
2024/01/14 10:30:57;;;;;;;0.20;0.20;;;;;;;;;;5056240;28;20250;-80
2024/01/14 10:33:25;;;;;;;0.20;0.20;;;;;;;;;;5064236;28;20433;-82
2024/01/14 10:35:52;;;;;;;0.20;0.20;;;;;;;;;;5053925;28;20297;-83
2024/01/14 10:38:21;;;;;;;0.20;0.20;;;;;;;;;;5064064;28;20250;-81
2024/01/14 10:40:47;;;;;;;0.20;0.20;;;;;;;;;;5053832;28;20309;-78
2024/01/14 10:43:15;;;;;;;0.20;0.20;;;;;;;;;;5064440;28;20211;-82
2024/01/14 10:45:41;;;;;;;0.20;0.20;;;;;;;;;;5053148;28;20240;-85
2024/01/14 10:48:16;;;;;;;0.20;0.20;;;;;;;;;;5062869;28;20203;-79
2024/01/14 10:50:44;;;;;;;0.20;0.20;;;;;;;;;;5052512;28;20243;-81
2024/01/14 10:53:15;;;;;;;0.20;0.20;;;;;;;;;;5062321;28;20206;-82
2024/01/14 10:55:48;;;;;;;0.20;0.20;;;;;;;;;;5052943;28;20255;-82
2024/01/14 10:58:25;;;;;;;0.20;0.20;;;;;;;;;;5063088;28;20274;-79
2024/01/14 11:00:52;;;;;;;0.20;0.20;;;;;;;;;;5052944;28;20242;-80
2024/01/14 11:03:19;;;;;;;0.20;0.20;;;;;;;;;;5062746;28;20199;-73
2024/01/14 11:05:48;;;;;;;0.20;0.20;;;;;;;;;;5052988;28;20247;-79
2024/01/14 11:08:16;;;;;;;0.20;0.20;;;;;;;;;;5062087;28;20504;-77
2024/01/14 11:10:53;;;;;;;0.20;0.20;;;;;;;;;;5052470;28;20311;-76
2024/01/14 11:13:23;;;;;;;0.20;0.20;;;;;;;;;;5065303;28;20238;-78
2024/01/14 11:15:54;;;;;;;0.20;0.20;;;;;;;;;;5056370;28;20248;-79
2024/01/14 11:18:23;;;;;;;0.20;0.20;;;;;;;;;;5065944;28;20212;-78
2024/01/14 11:20:54;;;;;;;0.20;0.20;;;;;;;;;;5055624;28;20267;-78
2024/01/14 11:23:21;;;;;;;0.20;0.20;;;;;;;;;;5065584;28;20193;-78
2024/01/14 11:25:49;;;;;;;0.20;0.20;;;;;;;;;;5058200;28;20250;-79
2024/01/14 11:28:18;;;;;;;0.20;0.20;;;;;;;;;;5065917;28;20207;-80
2024/01/14 11:30:51;;;;;;;0.20;0.20;;;;;;;;;;5055721;28;20326;-78
2024/01/14 11:33:28;;;;;;;0.20;0.20;;;;;;;;;;5065421;28;20525;-79
2024/01/14 11:35:54;;;;;;;0.23;0.23;;;;;;;;;;5055141;28;20243;-79
2024/01/14 11:38:33;;;;;;;0.20;0.20;;;;;;;;;;5065550;28;20269;-79
2024/01/14 11:41:00;;;;;;;0.20;0.20;;;;;;;;;;5055217;28;20250;-79
2024/01/14 11:43:28;;;;;;;0.20;0.20;;;;;;;;;;5065581;28;20212;-79
2024/01/14 11:45:56;;;;;;;0.20;0.20;;;;;;;;;;5054939;28;20235;-80
2024/01/14 11:48:24;;;;;;;0.20;0.20;;;;;;;;;;5065046;28;20274;-79
2024/01/14 11:50:53;;;;;;;0.23;0.23;;;;;;;;;;5055019;28;20300;-77
2024/01/14 11:53:20;;;;;;;0.20;0.20;;;;;;;;;;5065245;28;20206;-73
2024/01/14 11:55:49;;;;;;;0.20;0.20;;;;;;;;;;5054856;28;20577;-75
2024/01/14 11:58:17;;;;;;;0.30;0.30;;;;;;;;;;5064680;28;20228;-76
2024/01/14 12:00:50;;;;;;;0.20;0.20;;;;;;;;;;5054459;28;20281;-76
2024/01/14 12:03:20;;;;;;;0.20;0.20;;;;;;;;;;5064974;28;20507;-77
2024/01/14 12:05:48;;;;;;;0.20;0.20;;;;;;;;;;5054454;28;20244;-76
2024/01/14 12:08:17;;;;;;;0.20;0.20;;;;;;;;;;5064911;28;20200;-77
2024/01/14 12:10:54;;;;;;;0.20;0.20;;;;;;;;;;5055300;28;20250;-77
2024/01/14 12:13:20;;;;;;;0.20;0.20;;;;;;;;;;5064757;28;20246;-77
2024/01/14 12:15:47;;;;;;;0.20;0.20;;;;;;;;;;5053763;28;20306;-77
2024/01/14 12:18:14;;;;;;;0.20;0.20;;;;;;;;;;5064221;28;20226;-77
2024/01/14 12:20:43;;;;;;;0.20;0.20;;;;;;;;;;5050335;28;20243;-76
2024/01/14 12:23:10;;;;;;;0.20;0.20;;;;;;;;;;5056567;28;20259;-76
2024/01/14 12:25:39;;;;;;;0.20;0.20;;;;;;;;;;5042295;28;20305;-76
2024/01/14 12:28:06;;;;;;;0.20;0.20;;;;;;;;;;5044536;28;20422;-77
2024/01/14 12:30:35;;;;;;;0.20;0.20;;;;;;;;;;5038596;28;20306;-77
2024/01/14 12:33:11;;;;;;;0.20;0.20;;;;;;;;;;5060663;28;20273;-76
2024/01/14 12:35:38;;;;;;;0.20;0.20;;;;;;;;;;5053504;28;20249;-77
2024/01/14 12:38:06;;;;;;;0.20;0.20;;;;;;;;;;5058080;28;20275;-76
2024/01/14 12:40:33;;;;;;;0.20;0.20;;;;;;;;;;5053629;28;20274;-76
2024/01/14 12:43:00;;;;;;;0.20;0.20;;;;;;;;;;5056488;28;20218;-75
2024/01/14 12:45:26;;;;;;;0.30;0.30;;;;;;;;;;5053079;28;20239;-76
2024/01/14 12:47:58;;;;;;;0.20;0.20;;;;;;;;;;5059002;28;20225;-75
2024/01/14 12:50:26;;;;;;;0.20;0.20;;;;;;;;;;5038000;28;20207;-76
2024/01/14 12:52:56;;;;;;;0.20;0.20;;;;;;;;;;5063908;28;20278;-77
2024/01/14 12:55:29;;;;;;;0.20;0.20;;;;;;;;;;5054329;28;20263;-76
2024/01/14 12:57:57;;;;;;;0.20;0.20;;;;;;;;;;5063261;28;20400;-76
2024/01/14 13:00:26;;;;;;;0.20;0.20;;;;;;;;;;5052623;28;20257;-76
2024/01/14 13:02:53;;;;;;;0.20;0.20;;;;;;;;;;5047754;28;20208;-76
2024/01/14 13:05:22;;;;;;;0.20;0.20;;;;;;;;;;5035888;28;20231;-78
2024/01/14 13:07:48;;;;;;;0.33;0.33;;;;;;;;;;5058519;28;20275;-77
2024/01/14 13:10:15;;;;;;;0.20;0.20;;;;;;;;;;5034838;28;20262;-74
2024/01/14 13:12:43;;;;;;;0.20;0.20;;;;;;;;;;5058826;28;20261;-77
2024/01/14 13:15:10;;;;;;;0.20;0.20;;;;;;;;;;5040749;28;20204;-77
2024/01/14 13:17:41;;;;;;;0.20;0.20;;;;;;;;;;5059346;28;20221;-77
2024/01/14 13:20:08;;;;;;;0.27;0.27;;;;;;;;;;5043862;28;20289;-77
2024/01/14 13:22:35;;;;;;;0.20;0.20;;;;;;;;;;5032974;28;20231;-77
2024/01/14 13:25:02;;;;;;;0.20;0.20;;;;;;;;;;5043936;28;20205;-77
2024/01/14 13:27:29;;;;;;;0.20;0.20;;;;;;;;;;5049382;28;20617;-76
2024/01/14 13:29:57;;;;;;;0.20;0.20;;;;;;;;;;5043806;28;20197;-77
2024/01/14 13:32:23;;;;;;;0.20;0.20;;;;;;;;;;5049260;28;20243;-77
2024/01/14 13:34:50;;;;;;;0.20;0.20;;;;;;;;;;5043754;28;20526;-77
2024/01/14 13:37:17;;;;;;;0.20;0.20;;;;;;;;;;5049419;28;20437;-78
2024/01/14 13:39:44;;;;;;;0.23;0.23;;;;;;;;;;5043821;28;20230;-77
2024/01/14 13:42:11;;;;;;;0.30;0.30;;;;;;;;;;5049087;28;20265;-77
2024/01/14 13:44:38;;;;;;;0.20;0.20;;;;;;;;;;5043498;28;20407;-77
2024/01/14 13:47:08;;;;;;;0.20;0.20;;;;;;;;;;5048485;28;20476;-77
2024/01/14 13:49:35;;;;;;;0.20;0.20;;;;;;;;;;5043637;28;20204;-77
2024/01/14 13:52:02;;;;;;;0.20;0.20;;;;;;;;;;5048164;28;20247;-77
2024/01/14 13:54:28;;;;;;;0.20;0.20;;;;;;;;;;5044062;28;20205;-77
2024/01/14 13:56:55;;;;;;;0.27;0.27;;;;;;;;;;5047178;28;20497;-76
2024/01/14 13:59:22;;;;;;;0.20;0.20;;;;;;;;;;5045006;28;20227;-76
2024/01/14 14:01:48;;;;;;;0.20;0.20;;;;;;;;;;5045367;28;20244;-77
2024/01/14 14:04:16;;;;;;;0.20;0.20;;;;;;;;;;5045870;28;20269;-76
2024/01/14 14:06:43;;;;;;;0.20;0.20;;;;;;;;;;5045045;28;20289;-76
2024/01/14 14:09:09;;;;;;;0.20;0.20;;;;;;;;;;5046836;28;20272;-76
2024/01/14 14:11:36;;;;;;;0.20;0.20;;;;;;;;;;5044258;28;20247;-77
2024/01/14 14:14:02;;;;;;;0.20;0.20;;;;;;;;;;5047615;28;20307;-76
2024/01/14 14:16:29;;;;;;;0.20;0.20;;;;;;;;;;5043401;28;20243;-76
2024/01/14 14:18:55;;;;;;;0.20;0.20;;;;;;;;;;5048584;28;20420;-76
2024/01/14 14:21:23;;;;;;;0.20;0.20;;;;;;;;;;5042326;28;20274;-76
2024/01/14 14:23:50;;;;;;;0.30;0.30;;;;;;;;;;5049535;28;20208;-77
2024/01/14 14:26:16;;;;;;;0.20;0.20;;;;;;;;;;5041657;28;20270;-76
2024/01/14 14:28:42;;;;;;;0.20;0.20;;;;;;;;;;5049822;28;20235;-77
2024/01/14 14:31:09;;;;;;;0.20;0.20;;;;;;;;;;5040554;28;20254;-76
2024/01/14 14:33:35;;;;;;;0.20;0.20;;;;;;;;;;5051089;28;20196;-75
2024/01/14 14:36:02;;;;;;;0.20;0.20;;;;;;;;;;5039761;28;20512;-77
2024/01/14 14:38:30;;;;;;;0.23;0.23;;;;;;;;;;5051932;28;20232;-77
2024/01/14 14:40:56;;;;;;;0.20;0.20;;;;;;;;;;5038968;28;20337;-77
2024/01/14 14:43:23;;;;;;;0.20;0.20;;;;;;;;;;5052558;28;20280;-77